Time;durP1;ratioP1;P1;durP2;ratioP2;P2;SDS_P1;SDS_P2;PMS_P1;PMS_P2;Temp;Humidity;BMP_temperature;BMP_pressure;BME280_temperature;BME280_humidity;BME280_pressure;Samples;Min_cycle;Max_cycle;Signal;HPM_P1;HPM_P2
2023/11/23 00:00:04;;;;;;;1.50;0.40;;;;;;;;;;333575;29;1734;-60
2023/11/23 00:00:15;;;;;;;1.15;0.45;;;;;;;;;;333521;29;1314;-59
2023/11/23 00:00:26;;;;;;;1.45;0.45;;;;;;;;;;333573;29;1447;-59
2023/11/23 00:00:37;;;;;;;1.35;0.50;;;;;;;;;;334882;29;1513;-59
2023/11/23 00:00:48;;;;;;;1.50;0.50;;;;;;;;;;334862;29;1329;-60
2023/11/23 00:00:59;;;;;;;1.40;0.50;;;;;;;;;;333627;29;1300;-60
2023/11/23 00:01:11;;;;;;;1.88;0.50;;;;;;;;;;336148;29;1509;-59
2023/11/23 00:01:22;;;;;;;1.35;0.40;;;;;;;;;;334803;29;1405;-59
2023/11/23 00:01:34;;;;;;;1.20;0.45;;;;;;;;;;333625;29;1420;-59
2023/11/23 00:01:45;;;;;;;1.92;0.77;;;;;;;;;;332414;29;1332;-59
2023/11/23 00:01:57;;;;;;;2.15;0.80;;;;;;;;;;332290;29;1193;-59
2023/11/23 00:02:08;;;;;;;2.08;0.77;;;;;;;;;;333607;29;1432;-59
2023/11/23 00:02:19;;;;;;;1.13;0.40;;;;;;;;;;333546;29;1437;-59
2023/11/23 00:02:30;;;;;;;1.02;0.40;;;;;;;;;;336085;29;1357;-58
2023/11/23 00:02:42;;;;;;;1.20;0.50;;;;;;;;;;334849;29;1322;-59
2023/11/23 00:02:53;;;;;;;1.58;0.50;;;;;;;;;;333551;29;1507;-60
2023/11/23 00:03:04;;;;;;;1.70;0.40;;;;;;;;;;333494;29;1292;-60
2023/11/23 00:03:16;;;;;;;1.75;0.40;;;;;;;;;;332301;29;1318;-60
2023/11/23 00:03:27;;;;;;;1.30;0.35;;;;;;;;;;332275;29;1389;-60
2023/11/23 00:03:38;;;;;;;1.20;0.40;;;;;;;;;;331064;29;1323;-60
2023/11/23 00:03:49;;;;;;;1.13;0.40;;;;;;;;;;331188;29;1331;-60
2023/11/23 00:04:00;;;;;;;1.65;0.45;;;;;;;;;;331151;29;1303;-57
2023/11/23 00:04:11;;;;;;;1.70;0.50;;;;;;;;;;332247;29;1295;-59
2023/11/23 00:04:22;;;;;;;1.42;0.50;;;;;;;;;;332223;29;1921;-59
2023/11/23 00:04:34;;;;;;;1.48;0.57;;;;;;;;;;332331;29;1521;-59
2023/11/23 00:04:45;;;;;;;1.40;0.60;;;;;;;;;;333462;29;1394;-59
2023/11/23 00:04:56;;;;;;;1.50;0.52;;;;;;;;;;333651;29;1291;-60
2023/11/23 00:05:08;;;;;;;0.85;0.40;;;;;;;;;;332381;29;1523;-60
2023/11/23 00:05:20;;;;;;;1.00;0.40;;;;;;;;;;330962;29;1291;-60
2023/11/23 00:05:31;;;;;;;1.05;0.35;;;;;;;;;;333694;29;1519;-60
2023/11/23 00:05:42;;;;;;;1.30;0.40;;;;;;;;;;334866;29;1580;-60
2023/11/23 00:05:53;;;;;;;1.52;0.40;;;;;;;;;;334802;29;1406;-60
2023/11/23 00:06:04;;;;;;;1.30;0.38;;;;;;;;;;333531;29;1294;-60
2023/11/23 00:06:16;;;;;;;1.88;0.38;;;;;;;;;;333534;29;1406;-60
2023/11/23 00:06:27;;;;;;;1.88;0.40;;;;;;;;;;332339;29;1337;-60
2023/11/23 00:06:38;;;;;;;2.13;0.40;;;;;;;;;;332232;29;1288;-61
2023/11/23 00:06:49;;;;;;;1.55;0.40;;;;;;;;;;330993;29;1436;-60
2023/11/23 00:07:02;;;;;;;1.40;0.40;;;;;;;;;;332377;29;1296;-60
2023/11/23 00:07:13;;;;;;;0.95;0.40;;;;;;;;;;333470;29;1509;-60
2023/11/23 00:07:24;;;;;;;1.10;0.40;;;;;;;;;;333616;29;1330;-60
2023/11/23 00:07:35;;;;;;;1.15;0.40;;;;;;;;;;334912;29;1425;-61
2023/11/23 00:07:46;;;;;;;1.83;0.40;;;;;;;;;;333573;29;1445;-60
2023/11/23 00:07:58;;;;;;;1.95;0.43;;;;;;;;;;333619;29;1596;-60
2023/11/23 00:08:11;;;;;;;1.85;0.55;;;;;;;;;;333393;29;1318;-59
2023/11/23 00:08:23;;;;;;;2.22;0.88;;;;;;;;;;330940;29;1531;-60
2023/11/23 00:08:34;;;;;;;2.80;1.25;;;;;;;;;;332372;29;1303;-60
2023/11/23 00:08:45;;;;;;;2.75;1.35;;;;;;;;;;332258;29;1322;-60
2023/11/23 00:08:56;;;;;;;3.70;1.52;;;;;;;;;;332304;29;1287;-60
2023/11/23 00:09:09;;;;;;;3.17;1.50;;;;;;;;;;334850;29;1503;-60
2023/11/23 00:09:20;;;;;;;2.67;1.40;;;;;;;;;;334872;29;1290;-60
2023/11/23 00:09:31;;;;;;;2.78;1.50;;;;;;;;;;332289;29;1557;-60
2023/11/23 00:09:42;;;;;;;3.38;1.55;;;;;;;;;;333560;29;978;-59
2023/11/23 00:09:53;;;;;;;3.88;1.52;;;;;;;;;;332312;29;1932;-60
2023/11/23 00:10:04;;;;;;;3.90;1.40;;;;;;;;;;333613;29;1346;-62
2023/11/23 00:10:16;;;;;;;3.13;1.40;;;;;;;;;;334750;29;1319;-60
2023/11/23 00:10:28;;;;;;;2.45;1.10;;;;;;;;;;334894;29;1277;-60
2023/11/23 00:10:39;;;;;;;2.42;1.02;;;;;;;;;;333638;29;1527;-60
2023/11/23 00:10:50;;;;;;;2.72;0.82;;;;;;;;;;333490;29;1350;-60
2023/11/23 00:11:01;;;;;;;2.67;0.80;;;;;;;;;;333558;29;1498;-60
2023/11/23 00:11:12;;;;;;;2.63;0.80;;;;;;;;;;332324;29;1567;-60
2023/11/23 00:11:24;;;;;;;2.13;0.85;;;;;;;;;;332310;29;1476;-60
2023/11/23 00:11:36;;;;;;;2.50;0.90;;;;;;;;;;332244;29;1442;-60
2023/11/23 00:11:47;;;;;;;3.78;0.80;;;;;;;;;;332364;29;1322;-60
2023/11/23 00:11:58;;;;;;;4.82;0.88;;;;;;;;;;329810;29;1299;-60
2023/11/23 00:12:09;;;;;;;3.53;0.90;;;;;;;;;;332249;29;1467;-60
2023/11/23 00:12:21;;;;;;;2.08;0.80;;;;;;;;;;333623;29;1384;-60
2023/11/23 00:12:32;;;;;;;1.58;0.60;;;;;;;;;;333634;29;1306;-60
2023/11/23 00:12:43;;;;;;;1.60;0.60;;;;;;;;;;333576;29;1289;-60
2023/11/23 00:12:54;;;;;;;1.95;0.70;;;;;;;;;;333503;29;1405;-60
2023/11/23 00:13:06;;;;;;;1.95;0.63;;;;;;;;;;334809;29;1394;-60
2023/11/23 00:13:17;;;;;;;1.55;0.70;;;;;;;;;;332281;29;1638;-60
2023/11/23 00:13:28;;;;;;;1.60;0.60;;;;;;;;;;332319;29;1327;-60
2023/11/23 00:13:39;;;;;;;2.53;0.75;;;;;;;;;;333642;29;1302;-60
2023/11/23 00:13:51;;;;;;;2.28;0.68;;;;;;;;;;332322;29;1294;-60
2023/11/23 00:14:02;;;;;;;2.20;0.68;;;;;;;;;;331057;29;1347;-59
2023/11/23 00:14:13;;;;;;;2.67;0.60;;;;;;;;;;331039;29;1497;-60
2023/11/23 00:14:25;;;;;;;2.92;0.93;;;;;;;;;;331052;29;1297;-60
2023/11/23 00:14:36;;;;;;;4.03;1.00;;;;;;;;;;333533;29;1306;-60
2023/11/23 00:14:47;;;;;;;2.90;1.05;;;;;;;;;;334870;29;1313;-60
2023/11/23 00:15:00;;;;;;;2.88;0.73;;;;;;;;;;333660;29;1306;-61
2023/11/23 00:15:11;;;;;;;2.95;0.60;;;;;;;;;;333559;29;1280;-61
2023/11/23 00:15:23;;;;;;;3.20;0.70;;;;;;;;;;333587;29;1502;-61
2023/11/23 00:15:34;;;;;;;2.65;0.60;;;;;;;;;;333547;29;1310;-61
2023/11/23 00:15:45;;;;;;;1.42;0.52;;;;;;;;;;332323;29;1295;-61
2023/11/23 00:15:56;;;;;;;0.80;0.40;;;;;;;;;;332265;29;1047;-61
2023/11/23 00:16:07;;;;;;;1.40;0.43;;;;;;;;;;334844;29;1338;-61
2023/11/23 00:16:18;;;;;;;1.45;0.50;;;;;;;;;;332286;29;1728;-61
2023/11/23 00:16:29;;;;;;;1.50;0.50;;;;;;;;;;332185;29;1312;-61
2023/11/23 00:16:43;;;;;;;1.40;0.40;;;;;;;;;;332282;29;1308;-60
2023/11/23 00:16:54;;;;;;;1.30;0.40;;;;;;;;;;331022;29;1311;-60
2023/11/23 00:17:05;;;;;;;1.25;0.47;;;;;;;;;;331103;29;1419;-61
2023/11/23 00:17:16;;;;;;;1.30;0.45;;;;;;;;;;331008;29;1504;-61
2023/11/23 00:17:29;;;;;;;1.30;0.50;;;;;;;;;;329799;30;1428;-61
2023/11/23 00:17:40;;;;;;;0.85;0.50;;;;;;;;;;331001;29;1841;-60
2023/11/23 00:17:52;;;;;;;1.23;0.45;;;;;;;;;;331013;29;1386;-58
2023/11/23 00:18:03;;;;;;;1.10;0.35;;;;;;;;;;330980;29;1395;-61
2023/11/23 00:18:14;;;;;;;1.00;0.20;;;;;;;;;;330993;29;1296;-60
2023/11/23 00:18:25;;;;;;;0.77;0.35;;;;;;;;;;333528;29;1343;-60
2023/11/23 00:18:36;;;;;;;1.50;0.50;;;;;;;;;;334873;29;1447;-60
2023/11/23 00:18:47;;;;;;;1.80;0.60;;;;;;;;;;334800;29;1471;-60
2023/11/23 00:18:58;;;;;;;1.77;0.57;;;;;;;;;;333527;29;1286;-60
2023/11/23 00:19:13;;;;;;;1.00;0.50;;;;;;;;;;332186;29;1463;-59
2023/11/23 00:19:24;;;;;;;1.50;0.50;;;;;;;;;;332278;29;1328;-60
2023/11/23 00:19:35;;;;;;;1.40;0.50;;;;;;;;;;333426;29;1276;-59
2023/11/23 00:19:47;;;;;;;1.25;0.40;;;;;;;;;;332314;29;1011;-60
2023/11/23 00:19:58;;;;;;;0.70;0.40;;;;;;;;;;332341;29;1448;-60
2023/11/23 00:20:10;;;;;;;1.10;0.30;;;;;;;;;;332280;29;1543;-60
2023/11/23 00:20:21;;;;;;;1.23;0.40;;;;;;;;;;332264;29;1394;-60
2023/11/23 00:20:32;;;;;;;1.20;0.40;;;;;;;;;;332310;29;1333;-59
2023/11/23 00:20:44;;;;;;;1.90;0.60;;;;;;;;;;333515;29;1302;-59
2023/11/23 00:20:55;;;;;;;2.60;0.60;;;;;;;;;;333509;29;1287;-60
2023/11/23 00:21:06;;;;;;;2.67;0.55;;;;;;;;;;334336;29;1615;-58
2023/11/23 00:21:17;;;;;;;1.63;0.40;;;;;;;;;;334669;29;1633;-59
2023/11/23 00:21:28;;;;;;;0.82;0.30;;;;;;;;;;332271;29;1199;-59
2023/11/23 00:21:39;;;;;;;0.75;0.30;;;;;;;;;;331067;29;1301;-60
2023/11/23 00:21:50;;;;;;;0.95;0.30;;;;;;;;;;331036;29;1322;-60
2023/11/23 00:22:01;;;;;;;0.93;0.30;;;;;;;;;;333505;29;1477;-58
2023/11/23 00:22:13;;;;;;;0.90;0.30;;;;;;;;;;333526;29;1504;-59
2023/11/23 00:22:24;;;;;;;1.15;0.38;;;;;;;;;;333604;29;1452;-60
2023/11/23 00:22:36;;;;;;;1.27;0.30;;;;;;;;;;334828;29;1814;-60
2023/11/23 00:22:47;;;;;;;1.98;0.45;;;;;;;;;;334748;29;1273;-60
2023/11/23 00:22:58;;;;;;;2.42;0.60;;;;;;;;;;333645;29;1458;-59
2023/11/23 00:23:09;;;;;;;2.60;0.77;;;;;;;;;;333531;29;1314;-58
2023/11/23 00:23:21;;;;;;;1.60;0.63;;;;;;;;;;334728;29;1317;-59
2023/11/23 00:23:32;;;;;;;1.27;0.60;;;;;;;;;;333550;29;1345;-59
2023/11/23 00:23:43;;;;;;;0.90;0.40;;;;;;;;;;333606;29;1341;-59
2023/11/23 00:23:54;;;;;;;1.45;0.30;;;;;;;;;;332302;29;1495;-59
2023/11/23 00:24:05;;;;;;;2.20;0.40;;;;;;;;;;329839;30;1441;-59
2023/11/23 00:24:17;;;;;;;2.20;0.40;;;;;;;;;;332172;29;1472;-60
2023/11/23 00:24:28;;;;;;;1.42;0.40;;;;;;;;;;333539;29;1924;-59
2023/11/23 00:24:39;;;;;;;1.60;0.40;;;;;;;;;;333501;29;1653;-60
2023/11/23 00:24:50;;;;;;;1.70;0.50;;;;;;;;;;333590;29;1299;-59
2023/11/23 00:25:03;;;;;;;1.55;0.50;;;;;;;;;;331066;29;1304;-60
2023/11/23 00:25:14;;;;;;;1.77;0.50;;;;;;;;;;330733;29;1437;-59
2023/11/23 00:25:27;;;;;;;1.85;0.55;;;;;;;;;;332337;29;1337;-59
2023/11/23 00:25:38;;;;;;;1.10;0.50;;;;;;;;;;333547;29;1317;-59
2023/11/23 00:25:49;;;;;;;1.10;0.40;;;;;;;;;;332229;29;1446;-58
2023/11/23 00:26:03;;;;;;;1.55;0.40;;;;;;;;;;332350;29;1698;-59
2023/11/23 00:26:14;;;;;;;1.70;0.50;;;;;;;;;;330985;29;1083;-59
2023/11/23 00:26:25;;;;;;;1.30;0.47;;;;;;;;;;332273;29;1343;-59
2023/11/23 00:26:36;;;;;;;1.13;0.50;;;;;;;;;;333018;29;1406;-59
2023/11/23 00:26:48;;;;;;;1.85;0.50;;;;;;;;;;333530;29;1319;-59
2023/11/23 00:26:59;;;;;;;2.00;0.50;;;;;;;;;;332281;29;1286;-60
2023/11/23 00:27:10;;;;;;;1.60;0.60;;;;;;;;;;333553;29;943;-59
2023/11/23 00:27:21;;;;;;;1.65;0.60;;;;;;;;;;332313;29;1339;-60
2023/11/23 00:27:34;;;;;;;1.80;0.60;;;;;;;;;;333595;29;1271;-59
2023/11/23 00:27:45;;;;;;;1.80;0.50;;;;;;;;;;333528;29;1329;-60
2023/11/23 00:27:56;;;;;;;1.88;0.40;;;;;;;;;;333578;29;1278;-60
2023/11/23 00:28:08;;;;;;;1.85;0.40;;;;;;;;;;332269;29;1496;-60
2023/11/23 00:28:19;;;;;;;1.30;0.50;;;;;;;;;;333393;29;1619;-60
2023/11/23 00:28:30;;;;;;;0.98;0.50;;;;;;;;;;336150;29;1333;-60
2023/11/23 00:28:41;;;;;;;0.98;0.50;;;;;;;;;;336109;29;1337;-60
2023/11/23 00:28:53;;;;;;;1.13;0.60;;;;;;;;;;335962;29;1494;-60
2023/11/23 00:29:05;;;;;;;1.90;0.60;;;;;;;;;;334736;29;1837;-57
2023/11/23 00:29:16;;;;;;;2.08;0.60;;;;;;;;;;334778;29;1597;-58
2023/11/23 00:29:27;;;;;;;2.63;0.70;;;;;;;;;;333625;29;1423;-57
2023/11/23 00:29:38;;;;;;;1.80;0.50;;;;;;;;;;333553;29;1334;-57
2023/11/23 00:29:49;;;;;;;1.45;0.40;;;;;;;;;;334848;29;1299;-58
2023/11/23 00:30:00;;;;;;;0.82;0.40;;;;;;;;;;334850;29;1327;-57
2023/11/23 00:30:12;;;;;;;0.90;0.40;;;;;;;;;;334694;29;1294;-57
2023/11/23 00:30:25;;;;;;;1.23;0.43;;;;;;;;;;332260;29;1456;-58
2023/11/23 00:30:36;;;;;;;1.60;0.50;;;;;;;;;;333623;29;1069;-57
2023/11/23 00:30:47;;;;;;;1.52;0.50;;;;;;;;;;334665;29;1313;-58
2023/11/23 00:30:58;;;;;;;1.13;0.50;;;;;;;;;;336219;29;1290;-57
2023/11/23 00:31:09;;;;;;;0.90;0.40;;;;;;;;;;334707;29;1505;-58
2023/11/23 00:31:21;;;;;;;1.20;0.43;;;;;;;;;;331008;29;1733;-58
2023/11/23 00:31:32;;;;;;;1.40;0.55;;;;;;;;;;333557;29;1406;-58
2023/11/23 00:31:43;;;;;;;1.15;0.50;;;;;;;;;;334818;29;1270;-57
2023/11/23 00:31:54;;;;;;;1.73;0.43;;;;;;;;;;334786;29;1545;-57
2023/11/23 00:32:05;;;;;;;1.73;0.47;;;;;;;;;;336073;29;1262;-57
2023/11/23 00:32:17;;;;;;;1.52;0.40;;;;;;;;;;332263;29;1330;-57
2023/11/23 00:32:28;;;;;;;1.55;0.40;;;;;;;;;;333628;29;920;-58
2023/11/23 00:32:39;;;;;;;1.33;0.30;;;;;;;;;;333502;29;1545;-57
2023/11/23 00:32:50;;;;;;;1.05;0.40;;;;;;;;;;333479;29;1397;-57
2023/11/23 00:33:01;;;;;;;1.10;0.40;;;;;;;;;;333575;29;1885;-58
2023/11/23 00:33:12;;;;;;;1.55;0.57;;;;;;;;;;332192;29;1322;-58
2023/11/23 00:33:24;;;;;;;1.63;0.60;;;;;;;;;;334793;29;1694;-58
2023/11/23 00:33:35;;;;;;;1.30;0.55;;;;;;;;;;332240;29;1401;-58
2023/11/23 00:33:46;;;;;;;0.80;0.35;;;;;;;;;;332277;29;1271;-57
2023/11/23 00:33:57;;;;;;;0.73;0.30;;;;;;;;;;334788;29;1289;-57
2023/11/23 00:34:08;;;;;;;0.95;0.45;;;;;;;;;;332256;29;1282;-58
2023/11/23 00:34:20;;;;;;;1.55;0.60;;;;;;;;;;332319;29;1464;-58
2023/11/23 00:34:31;;;;;;;1.65;0.60;;;;;;;;;;334825;29;1298;-57
2023/11/23 00:34:42;;;;;;;1.33;0.50;;;;;;;;;;334835;29;1031;-57
2023/11/23 00:34:53;;;;;;;1.50;0.60;;;;;;;;;;336032;29;1278;-57
2023/11/23 00:35:05;;;;;;;2.40;0.70;;;;;;;;;;333503;29;1295;-57
2023/11/23 00:35:17;;;;;;;2.63;0.68;;;;;;;;;;333538;29;1581;-57
2023/11/23 00:35:28;;;;;;;2.35;0.57;;;;;;;;;;333533;29;1290;-57
2023/11/23 00:35:39;;;;;;;1.17;0.40;;;;;;;;;;334825;29;1293;-57
2023/11/23 00:35:50;;;;;;;0.90;0.40;;;;;;;;;;334796;29;1724;-57
2023/11/23 00:36:02;;;;;;;1.45;0.43;;;;;;;;;;334843;29;1563;-57
2023/11/23 00:36:13;;;;;;;1.67;0.50;;;;;;;;;;332214;29;1302;-58
2023/11/23 00:36:25;;;;;;;1.83;0.43;;;;;;;;;;329710;29;1595;-57
2023/11/23 00:36:37;;;;;;;1.20;0.30;;;;;;;;;;331100;29;1460;-58
2023/11/23 00:36:49;;;;;;;1.80;0.40;;;;;;;;;;333556;29;1341;-58
2023/11/23 00:37:00;;;;;;;1.58;0.40;;;;;;;;;;335998;29;1417;-57
2023/11/23 00:37:11;;;;;;;1.13;0.40;;;;;;;;;;337432;29;1689;-57
2023/11/23 00:37:22;;;;;;;1.10;0.30;;;;;;;;;;336201;29;1337;-58
2023/11/23 00:37:33;;;;;;;1.10;0.35;;;;;;;;;;336052;29;1482;-58
2023/11/23 00:37:44;;;;;;;1.30;0.50;;;;;;;;;;333597;29;1530;-58
2023/11/23 00:37:56;;;;;;;1.40;0.60;;;;;;;;;;333580;29;1425;-58
2023/11/23 00:38:10;;;;;;;1.30;0.60;;;;;;;;;;331045;29;1272;-57
2023/11/23 00:38:22;;;;;;;1.02;0.45;;;;;;;;;;333492;29;1637;-57
2023/11/23 00:38:34;;;;;;;1.13;0.40;;;;;;;;;;333586;29;1271;-57
2023/11/23 00:38:45;;;;;;;1.25;0.55;;;;;;;;;;334799;29;1352;-58
2023/11/23 00:38:56;;;;;;;1.08;0.50;;;;;;;;;;336078;29;1389;-58
2023/11/23 00:39:09;;;;;;;0.95;0.52;;;;;;;;;;337450;29;1306;-57
2023/11/23 00:39:20;;;;;;;1.20;0.47;;;;;;;;;;334815;29;935;-58
2023/11/23 00:39:31;;;;;;;1.80;0.50;;;;;;;;;;334794;29;1043;-58
2023/11/23 00:39:42;;;;;;;1.83;0.50;;;;;;;;;;332261;29;1290;-57
2023/11/23 00:39:53;;;;;;;1.83;0.50;;;;;;;;;;333524;29;1282;-58
2023/11/23 00:40:05;;;;;;;1.42;0.45;;;;;;;;;;333554;29;1567;-56
2023/11/23 00:40:16;;;;;;;1.38;0.50;;;;;;;;;;333479;29;1018;-57
2023/11/23 00:40:27;;;;;;;1.90;0.50;;;;;;;;;;333526;29;1395;-57
2023/11/23 00:40:38;;;;;;;2.53;0.40;;;;;;;;;;333603;29;1513;-57
2023/11/23 00:40:50;;;;;;;2.42;0.50;;;;;;;;;;333496;29;1007;-57
2023/11/23 00:41:01;;;;;;;1.88;0.40;;;;;;;;;;332307;29;1345;-57
2023/11/23 00:41:12;;;;;;;2.08;0.45;;;;;;;;;;336118;29;1235;-57
2023/11/23 00:41:23;;;;;;;3.22;0.45;;;;;;;;;;337305;29;1451;-58
2023/11/23 00:41:35;;;;;;;2.92;0.60;;;;;;;;;;337440;29;1046;-58
2023/11/23 00:41:47;;;;;;;2.60;0.60;;;;;;;;;;336150;29;845;-58
2023/11/23 00:41:58;;;;;;;1.73;0.60;;;;;;;;;;334805;29;1365;-57
2023/11/23 00:42:09;;;;;;;2.03;0.57;;;;;;;;;;333574;29;1326;-57
2023/11/23 00:42:20;;;;;;;1.58;0.60;;;;;;;;;;334789;29;1301;-58
2023/11/23 00:42:31;;;;;;;1.30;0.50;;;;;;;;;;333523;29;1486;-57
2023/11/23 00:42:42;;;;;;;1.33;0.50;;;;;;;;;;333572;29;1624;-58
2023/11/23 00:42:53;;;;;;;1.58;0.50;;;;;;;;;;333638;29;1320;-58
2023/11/23 00:43:04;;;;;;;1.70;0.40;;;;;;;;;;333585;29;1631;-58
2023/11/23 00:43:16;;;;;;;2.13;0.47;;;;;;;;;;333458;29;1440;-57
2023/11/23 00:43:27;;;;;;;2.47;0.40;;;;;;;;;;336040;29;1516;-58
2023/11/23 00:43:38;;;;;;;2.22;0.50;;;;;;;;;;336164;29;876;-57
2023/11/23 00:43:50;;;;;;;1.98;0.57;;;;;;;;;;337210;29;1294;-59
2023/11/23 00:44:02;;;;;;;1.98;0.52;;;;;;;;;;336134;29;1266;-57
2023/11/23 00:44:13;;;;;;;1.88;0.50;;;;;;;;;;330949;29;1297;-58
2023/11/23 00:44:24;;;;;;;1.45;0.50;;;;;;;;;;335945;29;1915;-57
2023/11/23 00:44:37;;;;;;;1.42;0.60;;;;;;;;;;334812;29;1426;-57
2023/11/23 00:44:48;;;;;;;1.77;0.50;;;;;;;;;;334855;29;1421;-57
2023/11/23 00:44:59;;;;;;;1.73;0.40;;;;;;;;;;334868;29;1504;-57
2023/11/23 00:45:14;;;;;;;1.90;0.40;;;;;;;;;;334790;29;1278;-57
2023/11/23 00:45:25;;;;;;;2.03;0.40;;;;;;;;;;334867;29;1512;-57
2023/11/23 00:45:37;;;;;;;1.75;0.40;;;;;;;;;;334844;29;1394;-57
2023/11/23 00:45:48;;;;;;;1.77;0.50;;;;;;;;;;333565;29;1574;-58
2023/11/23 00:45:59;;;;;;;1.40;0.43;;;;;;;;;;336086;29;1449;-57
2023/11/23 00:46:12;;;;;;;1.23;0.60;;;;;;;;;;333496;29;1490;-57
2023/11/23 00:46:23;;;;;;;1.00;0.50;;;;;;;;;;332266;29;995;-58
2023/11/23 00:46:37;;;;;;;1.17;0.50;;;;;;;;;;333503;29;1212;-57
2023/11/23 00:46:48;;;;;;;1.50;0.70;;;;;;;;;;336108;29;1278;-58
2023/11/23 00:46:59;;;;;;;1.60;0.50;;;;;;;;;;336081;29;1337;-57
2023/11/23 00:47:11;;;;;;;1.35;0.40;;;;;;;;;;336127;29;1335;-58
2023/11/23 00:47:22;;;;;;;1.90;0.40;;;;;;;;;;334847;29;1381;-57
2023/11/23 00:47:33;;;;;;;1.52;0.40;;;;;;;;;;334834;29;1596;-57
2023/11/23 00:47:44;;;;;;;1.63;0.43;;;;;;;;;;333489;29;1310;-58
2023/11/23 00:47:56;;;;;;;1.20;0.43;;;;;;;;;;333601;29;1598;-57
2023/11/23 00:48:07;;;;;;;1.20;0.43;;;;;;;;;;332310;29;1295;-57
2023/11/23 00:48:18;;;;;;;2.83;0.70;;;;;;;;;;333475;29;1366;-57
2023/11/23 00:48:29;;;;;;;2.63;0.60;;;;;;;;;;333439;29;1376;-57
2023/11/23 00:48:41;;;;;;;1.35;0.40;;;;;;;;;;333453;29;1425;-57
2023/11/23 00:48:53;;;;;;;0.95;0.40;;;;;;;;;;333498;29;1449;-58
2023/11/23 00:49:05;;;;;;;1.10;0.40;;;;;;;;;;336105;29;1404;-58
2023/11/23 00:49:16;;;;;;;1.40;0.40;;;;;;;;;;336103;29;1406;-56
2023/11/23 00:49:27;;;;;;;1.75;0.50;;;;;;;;;;334720;29;1450;-57
2023/11/23 00:49:38;;;;;;;1.65;0.63;;;;;;;;;;333634;29;1358;-57
2023/11/23 00:49:49;;;;;;;1.75;0.70;;;;;;;;;;331050;29;1278;-57
2023/11/23 00:50:01;;;;;;;1.60;0.60;;;;;;;;;;333474;29;1533;-57
2023/11/23 00:50:12;;;;;;;1.77;0.50;;;;;;;;;;334791;29;1575;-57
2023/11/23 00:50:24;;;;;;;1.32;0.40;;;;;;;;;;334821;29;1369;-58
2023/11/23 00:50:35;;;;;;;1.80;0.40;;;;;;;;;;332227;29;1315;-59
2023/11/23 00:50:46;;;;;;;1.70;0.40;;;;;;;;;;332233;29;1341;-57
2023/11/23 00:50:57;;;;;;;2.25;0.50;;;;;;;;;;333439;29;1288;-58
2023/11/23 00:51:08;;;;;;;1.63;0.40;;;;;;;;;;334279;29;1383;-57
2023/11/23 00:51:20;;;;;;;1.40;0.40;;;;;;;;;;334753;29;1259;-57
2023/11/23 00:51:36;;;;;;;0.80;0.40;;;;;;;;;;334861;29;1571;-58
2023/11/23 00:51:47;;;;;;;1.38;0.43;;;;;;;;;;337391;29;1300;-58
2023/11/23 00:51:58;;;;;;;1.95;0.70;;;;;;;;;;334825;29;1548;-58
2023/11/23 00:52:09;;;;;;;2.47;0.80;;;;;;;;;;334852;29;1266;-58
2023/11/23 00:52:21;;;;;;;2.08;0.73;;;;;;;;;;333531;29;1318;-58
2023/11/23 00:52:32;;;;;;;2.03;0.60;;;;;;;;;;333559;29;1285;-58
2023/11/23 00:52:43;;;;;;;1.48;0.50;;;;;;;;;;332251;29;1408;-58
2023/11/23 00:52:54;;;;;;;2.42;0.60;;;;;;;;;;332287;29;1542;-58
2023/11/23 00:53:05;;;;;;;2.88;0.60;;;;;;;;;;334811;29;1606;-56
2023/11/23 00:53:16;;;;;;;2.70;0.55;;;;;;;;;;336083;29;1368;-57
2023/11/23 00:53:27;;;;;;;1.90;0.55;;;;;;;;;;334760;29;1637;-58
2023/11/23 00:53:39;;;;;;;1.20;0.50;;;;;;;;;;336067;29;1489;-58
2023/11/23 00:53:51;;;;;;;1.23;0.50;;;;;;;;;;334725;29;1329;-58
2023/11/23 00:54:04;;;;;;;1.05;0.40;;;;;;;;;;332275;29;1423;-59
2023/11/23 00:54:15;;;;;;;1.85;0.50;;;;;;;;;;333597;29;1610;-58
2023/11/23 00:54:27;;;;;;;1.40;0.40;;;;;;;;;;334779;29;1341;-57
2023/11/23 00:54:39;;;;;;;1.15;0.40;;;;;;;;;;334854;29;1304;-58
2023/11/23 00:54:51;;;;;;;1.50;0.30;;;;;;;;;;334735;29;1275;-58
2023/11/23 00:55:05;;;;;;;1.52;0.38;;;;;;;;;;334815;29;1395;-58
2023/11/23 00:55:16;;;;;;;0.93;0.40;;;;;;;;;;333483;29;1674;-58
2023/11/23 00:55:30;;;;;;;0.60;0.40;;;;;;;;;;332278;29;1694;-58
2023/11/23 00:55:41;;;;;;;0.75;0.40;;;;;;;;;;335996;29;1333;-58
2023/11/23 00:55:56;;;;;;;0.93;0.50;;;;;;;;;;334787;29;1462;-58
2023/11/23 00:56:08;;;;;;;1.10;0.50;;;;;;;;;;333515;29;1543;-58
2023/11/23 00:56:19;;;;;;;1.10;0.40;;;;;;;;;;334781;29;1414;-58
2023/11/23 00:56:30;;;;;;;1.48;0.47;;;;;;;;;;332327;29;1390;-58
2023/11/23 00:56:41;;;;;;;1.33;0.40;;;;;;;;;;334836;29;1327;-58
2023/11/23 00:56:52;;;;;;;1.20;0.40;;;;;;;;;;337329;29;1297;-58
2023/11/23 00:57:03;;;;;;;1.40;0.50;;;;;;;;;;336123;29;1734;-58
2023/11/23 00:57:15;;;;;;;1.27;0.50;;;;;;;;;;334817;29;1453;-56
2023/11/23 00:57:26;;;;;;;1.15;0.50;;;;;;;;;;334724;29;1314;-57
2023/11/23 00:57:38;;;;;;;0.82;0.40;;;;;;;;;;334852;29;1302;-56
2023/11/23 00:57:49;;;;;;;1.10;0.40;;;;;;;;;;333503;29;1654;-56
2023/11/23 00:58:00;;;;;;;1.10;0.50;;;;;;;;;;332360;29;1461;-56
2023/11/23 00:58:11;;;;;;;1.10;0.60;;;;;;;;;;334711;29;1507;-56
2023/11/23 00:58:22;;;;;;;0.98;0.60;;;;;;;;;;337386;29;1050;-56
2023/11/23 00:58:33;;;;;;;2.00;0.63;;;;;;;;;;336050;29;1305;-56
2023/11/23 00:58:45;;;;;;;1.90;0.60;;;;;;;;;;333483;29;1504;-56
2023/11/23 00:58:56;;;;;;;1.35;0.60;;;;;;;;;;333519;29;1542;-57
2023/11/23 00:59:07;;;;;;;1.15;0.52;;;;;;;;;;332344;29;1470;-56
2023/11/23 00:59:18;;;;;;;1.90;0.50;;;;;;;;;;333538;29;1338;-56
2023/11/23 00:59:29;;;;;;;2.22;0.57;;;;;;;;;;334795;29;1723;-56
2023/11/23 00:59:41;;;;;;;2.08;0.50;;;;;;;;;;333516;29;1417;-56
2023/11/23 00:59:52;;;;;;;1.27;0.40;;;;;;;;;;334755;29;1421;-56
2023/11/23 01:00:06;;;;;;;1.20;0.32;;;;;;;;;;333538;29;1411;-56
2023/11/23 01:00:18;;;;;;;1.85;0.45;;;;;;;;;;333513;29;1495;-56
2023/11/23 01:00:29;;;;;;;1.60;0.50;;;;;;;;;;333461;29;1342;-56
2023/11/23 01:00:40;;;;;;;1.33;0.40;;;;;;;;;;334770;29;1511;-56
2023/11/23 01:00:51;;;;;;;1.27;0.40;;;;;;;;;;332174;29;1498;-56
2023/11/23 01:01:02;;;;;;;1.63;0.50;;;;;;;;;;334835;29;1298;-56
2023/11/23 01:01:14;;;;;;;1.70;0.50;;;;;;;;;;337299;29;1447;-56
2023/11/23 01:01:27;;;;;;;1.75;0.50;;;;;;;;;;337435;29;1328;-56
2023/11/23 01:01:39;;;;;;;1.17;0.40;;;;;;;;;;334768;29;1330;-56
2023/11/23 01:01:50;;;;;;;1.38;0.40;;;;;;;;;;330921;29;1007;-56
2023/11/23 01:02:01;;;;;;;1.38;0.35;;;;;;;;;;334859;29;1325;-56
2023/11/23 01:02:13;;;;;;;1.10;0.35;;;;;;;;;;332282;29;1410;-56
2023/11/23 01:02:24;;;;;;;1.23;0.43;;;;;;;;;;335974;29;1436;-56
2023/11/23 01:02:36;;;;;;;1.35;0.60;;;;;;;;;;333594;29;1298;-56
2023/11/23 01:02:47;;;;;;;1.40;0.60;;;;;;;;;;334791;29;1460;-56
2023/11/23 01:02:59;;;;;;;1.42;0.50;;;;;;;;;;332244;29;1314;-56
2023/11/23 01:03:10;;;;;;;1.40;0.40;;;;;;;;;;334783;29;1441;-56
2023/11/23 01:03:21;;;;;;;1.90;0.52;;;;;;;;;;334878;29;985;-56
2023/11/23 01:03:33;;;;;;;2.03;0.55;;;;;;;;;;334746;29;1897;-56
2023/11/23 01:03:44;;;;;;;1.83;0.60;;;;;;;;;;333471;29;1399;-56
2023/11/23 01:03:55;;;;;;;1.98;0.60;;;;;;;;;;332270;29;1494;-56
2023/11/23 01:04:07;;;;;;;1.70;0.55;;;;;;;;;;332261;29;1429;-57
2023/11/23 01:04:18;;;;;;;1.67;0.70;;;;;;;;;;333501;29;1023;-56
2023/11/23 01:04:30;;;;;;;0.85;0.60;;;;;;;;;;334736;29;1920;-56
2023/11/23 01:04:42;;;;;;;1.05;0.50;;;;;;;;;;334778;29;1294;-56
2023/11/23 01:04:53;;;;;;;1.77;0.40;;;;;;;;;;333509;29;1501;-55
2023/11/23 01:05:05;;;;;;;2.33;0.55;;;;;;;;;;333552;29;1286;-56
2023/11/23 01:05:16;;;;;;;1.98;0.50;;;;;;;;;;333489;29;1436;-56
2023/11/23 01:05:27;;;;;;;1.80;0.43;;;;;;;;;;334818;29;1318;-57
2023/11/23 01:05:38;;;;;;;1.60;0.40;;;;;;;;;;334833;29;1303;-56
2023/11/23 01:05:49;;;;;;;1.23;0.52;;;;;;;;;;336068;29;1291;-56
2023/11/23 01:06:00;;;;;;;1.00;0.60;;;;;;;;;;333564;29;1278;-56
2023/11/23 01:06:11;;;;;;;1.55;0.60;;;;;;;;;;334729;29;1388;-56
2023/11/23 01:06:23;;;;;;;1.73;0.52;;;;;;;;;;332305;29;1366;-56
2023/11/23 01:06:34;;;;;;;2.05;0.75;;;;;;;;;;334768;29;1286;-56
2023/11/23 01:06:46;;;;;;;1.65;0.70;;;;;;;;;;336033;29;888;-56
2023/11/23 01:06:57;;;;;;;1.85;0.45;;;;;;;;;;336078;29;1337;-57
2023/11/23 01:07:08;;;;;;;2.13;0.40;;;;;;;;;;336068;29;1388;-56
2023/11/23 01:07:19;;;;;;;2.55;0.47;;;;;;;;;;334803;29;1367;-56
2023/11/23 01:07:30;;;;;;;2.13;0.50;;;;;;;;;;332237;29;1360;-56
2023/11/23 01:07:42;;;;;;;1.58;0.50;;;;;;;;;;332285;29;1321;-56
2023/11/23 01:07:53;;;;;;;0.80;0.40;;;;;;;;;;332245;29;1390;-56
2023/11/23 01:08:05;;;;;;;1.40;0.40;;;;;;;;;;332284;29;1429;-56
2023/11/23 01:08:16;;;;;;;1.63;0.50;;;;;;;;;;333531;29;1401;-56
2023/11/23 01:08:27;;;;;;;1.50;0.45;;;;;;;;;;333531;29;2645;-56
2023/11/23 01:08:38;;;;;;;0.82;0.40;;;;;;;;;;332685;29;1690;-56
2023/11/23 01:08:49;;;;;;;0.88;0.30;;;;;;;;;;333491;29;1445;-56
2023/11/23 01:09:00;;;;;;;0.95;0.30;;;;;;;;;;333885;29;2842;-56
2023/11/23 01:09:11;;;;;;;1.45;0.45;;;;;;;;;;333520;29;1442;-56
2023/11/23 01:09:22;;;;;;;1.27;0.47;;;;;;;;;;333406;29;1283;-56
2023/11/23 01:09:34;;;;;;;1.05;0.60;;;;;;;;;;333582;29;1352;-56
2023/11/23 01:09:45;;;;;;;1.75;0.55;;;;;;;;;;333527;29;1427;-56
2023/11/23 01:09:56;;;;;;;1.75;0.70;;;;;;;;;;333537;29;1293;-56
2023/11/23 01:10:07;;;;;;;2.25;0.60;;;;;;;;;;333607;29;1388;-56
2023/11/23 01:10:18;;;;;;;1.48;0.40;;;;;;;;;;333498;29;1279;-56
2023/11/23 01:10:30;;;;;;;1.80;0.30;;;;;;;;;;330970;29;1287;-56